Long Beach, CA (90815)

10:43 PM PDT on September 25, 2016 (GMT -0700)
Los Altos | | Change Station
Active Advisory: Fire Weather Warning

Elev 36 ft 33.81 °N, 118.12 °W | Updated 2 minutes ago

Clear
Clear
75.0 °F
Feels Like 78 °F
N
0.6
Wind Variable Wind from SW
Gusts 1.9 mph

Today
High -- | Low -- °F
--% Chance of Precip.
Yesterday
High -- | Low -- °F
Precip. -- in
Pressure 29.93 in
Visibility 10.0 miles
Clouds Clear
Heat Index 78 °F
Dew Point 54 °F
Humidity 47%
Rainfall 0.00 in
Snow Depth Not available.
6:43 AM 6:44 PM
Waning Crescent, 21% visible
METAR KLGB 260453Z 00000KT 10SM CLR 25/07 A2993 RMK AO2 SLP134 T02500072
Pressure 29.93 in
Visibility 10.0 miles
Clouds Clear
Heat Index 78 °F
Dew Point 54 °F
Humidity 47%
Rainfall 0.00 in
Snow Depth Not available.
6:43 AM 6:44 PM
Waning Crescent, 21% visible
METAR KLGB 260453Z 00000KT 10SM CLR 25/07 A2993 RMK AO2 SLP134 T02500072

10-Day Weather Forecast

Almanac

Astronomy

Sep. 25, 2016 Rise Set
Actual Time
Civil Twilight
Nautical Twilight
Astronomical Twilight
Moon
Length of Visible Light
Length of Day
Tomorrow will be .
, % of the Moon is Illuminated

Today's Extremes

State Highs State Lows

Community

WunderPhotos

Upload Photos

1,941,852 photos uploaded!

WunderBlog® & News

Nearby

Air Quality

  Air Quality AQ Index Pollutant
Not available.

Snow Depth

Station Depth Elevation

Earthquake Activity

City Distance Mag. Time & Date
Minimum magnitude displayed is 2.5.

Coastal Water Temperatures

Place Temperature

Stations

Nearby Weather Stations

Station Location Temp. Windchill Dew Point Humidity Wind Precip. Elev Updated Type
                   

Watches & Warnings

Fire Weather Warning
Issued: 3:00 PM PDT Sep. 25, 2016 – National Weather Service

... Red flag warning remains in effect until 3 PM PDT Monday for
gusty northeast winds and low relative humidity for the Ventura
County coast and the Los Angeles County coast from Malibu to West
Hollywood hills...

* winds... north to northeast 15 to 30 mph with gusts to 40
mph... mainly from Ventura to Malibu and extending into the
western portion of the Hollywood Hills. Strongest during the mid
morning through early afternoon hours.

* Relative humidity... lowering to 5 to 15 percent during the
afternoon.

* Temperatures... highs 90 to 102 degrees. Very warm overnight
lows in the 70s in foothills and windy areas.

* Impacts... if fire ignition occurs there could be very rapid
spread of wildfire that would lead to a threat to life and
property.

Precautionary/preparedness actions...

A red flag warning means that critical fire weather conditions
are either occurring now... or will shortly. A combination of
gusty winds... low relative humidity... and hot temperatures will
create extreme fire behavior.

Please use extreme caution when using potential fire ignition
sources. Please advise the appropriate officials or fire crews in
the field of this red flag warning.